Time;durP1;ratioP1;P1;durP2;ratioP2;P2;SDS_P1;SDS_P2;PMS_P1;PMS_P2;Temp;Humidity;BMP_temperature;BMP_pressure;BME280_temperature;BME280_humidity;BME280_pressure;Samples;Min_cycle;Max_cycle;Signal;HPM_P1;HPM_P2
2023/06/24 00:00:37;;;;;;;;;;;;;;;;;;5226863;22;19918;-88
2023/06/24 00:03:01;;;;;;;;;;;;;;;;;;5204054;22;19945;-88
2023/06/24 00:05:21;;;;;;;;;;;;;;;;;;5226931;22;19956;-88
2023/06/24 00:07:45;;;;;;;;;;;;;;;;;;5183002;22;20126;-88
2023/06/24 00:10:06;;;;;;;;;;;;;;;;;;5205264;22;20263;-88
2023/06/24 00:12:27;;;;;;;;;;;;;;;;;;5205264;22;19959;-88
2023/06/24 00:14:47;;;;;;;;;;;;;;;;;;5236699;22;19956;-88
2023/06/24 00:17:08;;;;;;;;;;;;;;;;;;5228091;22;19917;-88
2023/06/24 00:19:31;;;;;;;;;;;;;;;;;;5205278;22;20225;-88
2023/06/24 00:21:51;;;;;;;;;;;;;;;;;;5228058;22;20141;-88
2023/06/24 00:24:12;;;;;;;;;;;;;;;;;;5205050;22;19918;-88
2023/06/24 00:26:32;;;;;;;;;;;;;;;;;;5228081;22;19917;-88
2023/06/24 00:28:52;;;;;;;;;;;;;;;;;;5228070;22;19917;-87
2023/06/24 00:31:12;;;;;;;;;;;;;;;;;;5227962;22;20217;-87
2023/06/24 00:33:35;;;;;;;;;;;;;;;;;;5228072;22;19918;-87
2023/06/24 00:35:56;;;;;;;;;;;;;;;;;;5228079;22;19933;-87
2023/06/24 00:38:16;;;;;;;;;;;;;;;;;;5205018;22;19918;-88
2023/06/24 00:40:36;;;;;;;;;;;;;;;;;;5227916;22;19918;-87
2023/06/24 00:42:56;;;;;;;;;;;;;;;;;;5228055;22;19918;-87
2023/06/24 00:45:17;;;;;;;;;;;;;;;;;;5205022;22;20119;-87
2023/06/24 00:47:38;;;;;;;;;;;;;;;;;;5227830;22;19917;-87
2023/06/24 00:49:59;;;;;;;;;;;;;;;;;;5228107;22;19918;-87
2023/06/24 00:52:19;;;;;;;;;;;;;;;;;;5228022;22;20217;-88
2023/06/24 00:54:39;;;;;;;;;;;;;;;;;;5204957;22;19926;-87
2023/06/24 00:57:03;;;;;;;;;;;;;;;;;;5180131;22;19918;-87
2023/06/24 00:59:23;;;;;;;;;;;;;;;;;;5227959;22;19918;-87
2023/06/24 01:01:45;;;;;;;;;;;;;;;;;;5227899;22;19980;-88
2023/06/24 01:04:05;;;;;;;;;;;;;;;;;;5204991;22;19956;-87
2023/06/24 01:06:28;;;;;;;;;;;;;;;;;;5205053;22;20272;-87
2023/06/24 01:08:50;;;;;;;;;;;;;;;;;;5227935;22;19956;-87
2023/06/24 01:11:11;;;;;;;;;;;;;;;;;;5204902;22;19922;-88
2023/06/24 01:13:31;;;;;;;;;;;;;;;;;;5227924;22;19917;-88
2023/06/24 01:15:51;;;;;;;;;;;;;;;;;;5204951;22;19926;-88
2023/06/24 01:18:10;;;;;;;;;;;;;;;;;;5204250;22;20244;-87
2023/06/24 01:20:31;;;;;;;;;;;;;;;;;;5204871;22;19968;-88
2023/06/24 01:22:51;;;;;;;;;;;;;;;;;;5227945;22;19963;-88
2023/06/24 01:25:11;;;;;;;;;;;;;;;;;;5227799;22;20013;-87
2023/06/24 01:27:31;;;;;;;;;;;;;;;;;;5213327;22;19961;-88
2023/06/24 01:29:54;;;;;;;;;;;;;;;;;;5227909;22;20008;-88
2023/06/24 01:32:15;;;;;;;;;;;;;;;;;;5204807;22;19941;-88
2023/06/24 01:34:35;;;;;;;;;;;;;;;;;;5204919;22;19964;-87
2023/06/24 01:36:56;;;;;;;;;;;;;;;;;;5227918;22;20106;-88
2023/06/24 01:39:16;;;;;;;;;;;;;;;;;;5204779;22;19918;-88
2023/06/24 01:41:36;;;;;;;;;;;;;;;;;;5227680;22;19917;-88
2023/06/24 01:43:56;;;;;;;;;;;;;;;;;;5227883;22;19941;-88
2023/06/24 01:46:16;;;;;;;;;;;;;;;;;;5227865;22;19918;-88
2023/06/24 01:48:37;;;;;;;;;;;;;;;;;;5227608;22;19917;-87
2023/06/24 01:50:57;;;;;;;;;;;;;;;;;;5227749;22;19958;-88
2023/06/24 01:53:17;;;;;;;;;;;;;;;;;;5204833;22;20125;-88
2023/06/24 01:55:37;;;;;;;;;;;;;;;;;;5169299;22;19918;-88
2023/06/24 01:57:58;;;;;;;;;;;;;;;;;;5204749;22;19942;-87
2023/06/24 02:00:18;;;;;;;;;;;;;;;;;;5204822;22;19994;-87
2023/06/24 02:02:38;;;;;;;;;;;;;;;;;;5227747;22;19941;-88
2023/06/24 02:04:58;;;;;;;;;;;;;;;;;;5227823;22;19941;-88
2023/06/24 02:07:18;;;;;;;;;;;;;;;;;;5227668;22;19917;-87
2023/06/24 02:09:39;;;;;;;;;;;;;;;;;;5204688;22;20237;-88
2023/06/24 02:11:59;;;;;;;;;;;;;;;;;;5227605;22;19958;-87
2023/06/24 02:14:19;;;;;;;;;;;;;;;;;;5227729;22;20102;-87
2023/06/24 02:16:40;;;;;;;;;;;;;;;;;;5204690;22;20213;-87
2023/06/24 02:19:00;;;;;;;;;;;;;;;;;;5204621;22;20121;-88
2023/06/24 02:21:20;;;;;;;;;;;;;;;;;;5227683;22;19917;-87
2023/06/24 02:23:41;;;;;;;;;;;;;;;;;;5204766;22;19918;-87
2023/06/24 02:26:01;;;;;;;;;;;;;;;;;;5227514;22;19918;-87
2023/06/24 02:28:21;;;;;;;;;;;;;;;;;;5213103;22;19918;-87
2023/06/24 02:30:42;;;;;;;;;;;;;;;;;;5204671;22;20105;-88
2023/06/24 02:33:02;;;;;;;;;;;;;;;;;;5204661;22;19942;-88
2023/06/24 02:35:22;;;;;;;;;;;;;;;;;;5204581;22;19918;-88
2023/06/24 02:37:42;;;;;;;;;;;;;;;;;;5227598;22;20126;-87
2023/06/24 02:40:04;;;;;;;;;;;;;;;;;;5227405;22;19918;-87
2023/06/24 02:42:25;;;;;;;;;;;;;;;;;;5227428;22;19918;-88
2023/06/24 02:44:45;;;;;;;;;;;;;;;;;;5227564;22;20110;-88
2023/06/24 02:47:06;;;;;;;;;;;;;;;;;;5227405;22;19953;-88
2023/06/24 02:49:26;;;;;;;;;;;;;;;;;;5227404;22;19918;-88
2023/06/24 02:51:46;;;;;;;;;;;;;;;;;;5213058;22;20010;-88
2023/06/24 02:54:07;;;;;;;;;;;;;;;;;;5227526;22;19917;-88
2023/06/24 02:56:27;;;;;;;;;;;;;;;;;;5227325;22;19984;-87
2023/06/24 02:58:47;;;;;;;;;;;;;;;;;;5204489;22;19958;-87
2023/06/24 03:01:08;;;;;;;;;;;;;;;;;;5204532;22;19918;-88
2023/06/24 03:03:28;;;;;;;;;;;;;;;;;;5204425;22;19972;-88
2023/06/24 03:05:50;;;;;;;;;;;;;;;;;;5235892;22;19992;-88
2023/06/24 03:08:10;;;;;;;;;;;;;;;;;;5204412;22;19961;-87
2023/06/24 03:10:30;;;;;;;;;;;;;;;;;;5227317;22;20148;-87
2023/06/24 03:12:51;;;;;;;;;;;;;;;;;;5227294;22;19925;-87
2023/06/24 03:15:11;;;;;;;;;;;;;;;;;;5227388;22;19918;-87
2023/06/24 03:17:32;;;;;;;;;;;;;;;;;;5227208;22;19922;-87
2023/06/24 03:19:52;;;;;;;;;;;;;;;;;;5227175;22;19918;-87
2023/06/24 03:22:13;;;;;;;;;;;;;;;;;;5227235;22;19918;-87
2023/06/24 03:24:34;;;;;;;;;;;;;;;;;;5227305;22;19956;-87
2023/06/24 03:26:56;;;;;;;;;;;;;;;;;;5204071;22;19942;-87
2023/06/24 03:29:17;;;;;;;;;;;;;;;;;;5204258;22;19949;-87
2023/06/24 03:31:37;;;;;;;;;;;;;;;;;;5227293;22;19925;-87
2023/06/24 03:33:57;;;;;;;;;;;;;;;;;;5204129;22;19918;-87
2023/06/24 03:36:18;;;;;;;;;;;;;;;;;;5227515;22;19933;-88
2023/06/24 03:38:38;;;;;;;;;;;;;;;;;;5227145;22;19918;-87
2023/06/24 03:40:58;;;;;;;;;;;;;;;;;;5227338;22;19937;-87
2023/06/24 03:43:19;;;;;;;;;;;;;;;;;;5205207;22;20244;-87
2023/06/24 03:45:39;;;;;;;;;;;;;;;;;;5228282;22;19918;-87
2023/06/24 03:47:59;;;;;;;;;;;;;;;;;;5228160;22;19970;-87
2023/06/24 03:50:20;;;;;;;;;;;;;;;;;;5205136;22;20007;-87
2023/06/24 03:52:40;;;;;;;;;;;;;;;;;;5205238;22;20285;-87
2023/06/24 03:55:03;;;;;;;;;;;;;;;;;;5228236;22;19949;-87
2023/06/24 03:57:23;;;;;;;;;;;;;;;;;;5228083;22;19933;-87
2023/06/24 03:59:43;;;;;;;;;;;;;;;;;;5228150;22;19917;-87
2023/06/24 04:02:07;;;;;;;;;;;;;;;;;;5213726;22;20005;-87
2023/06/24 04:04:27;;;;;;;;;;;;;;;;;;5228136;22;19917;-87
2023/06/24 04:06:48;;;;;;;;;;;;;;;;;;5228088;22;19959;-87
2023/06/24 04:09:09;;;;;;;;;;;;;;;;;;5228235;22;19918;-87
2023/06/24 04:11:30;;;;;;;;;;;;;;;;;;5236686;22;20109;-87
2023/06/24 04:13:50;;;;;;;;;;;;;;;;;;5228017;22;20217;-87
2023/06/24 04:16:10;;;;;;;;;;;;;;;;;;5228066;22;19933;-87
2023/06/24 04:18:31;;;;;;;;;;;;;;;;;;5228093;22;19925;-87
2023/06/24 04:20:52;;;;;;;;;;;;;;;;;;5228010;22;19956;-87
2023/06/24 04:23:14;;;;;;;;;;;;;;;;;;5228021;22;19925;-87
2023/06/24 04:25:34;;;;;;;;;;;;;;;;;;5205229;22;20159;-87
2023/06/24 04:27:54;;;;;;;;;;;;;;;;;;5227910;22;19917;-87
2023/06/24 04:30:15;;;;;;;;;;;;;;;;;;5236619;22;19932;-87
2023/06/24 04:32:35;;;;;;;;;;;;;;;;;;5205113;22;19918;-88
2023/06/24 04:34:55;;;;;;;;;;;;;;;;;;5228037;22;19949;-88
2023/06/24 04:37:15;;;;;;;;;;;;;;;;;;5204871;22;20252;-88
2023/06/24 04:39:36;;;;;;;;;;;;;;;;;;5228021;22;19956;-87
2023/06/24 04:41:56;;;;;;;;;;;;;;;;;;5227955;22;19917;-88
2023/06/24 04:44:16;;;;;;;;;;;;;;;;;;5204986;22;19995;-87
2023/06/24 04:46:37;;;;;;;;;;;;;;;;;;5213551;22;19974;-88
2023/06/24 04:48:57;;;;;;;;;;;;;;;;;;5228033;22;19942;-88
2023/06/24 04:51:17;;;;;;;;;;;;;;;;;;5227881;22;19949;-88
2023/06/24 04:53:38;;;;;;;;;;;;;;;;;;5204391;22;19940;-88
2023/06/24 04:55:58;;;;;;;;;;;;;;;;;;5227979;22;19958;-88
2023/06/24 04:58:18;;;;;;;;;;;;;;;;;;5204923;22;19980;-88
2023/06/24 05:00:39;;;;;;;;;;;;;;;;;;5227946;22;19933;-88
2023/06/24 05:02:59;;;;;;;;;;;;;;;;;;5227960;22;19955;-87
2023/06/24 05:05:20;;;;;;;;;;;;;;;;;;5204952;22;20298;-88
2023/06/24 05:07:41;;;;;;;;;;;;;;;;;;5227757;22;19952;-88
2023/06/24 05:10:01;;;;;;;;;;;;;;;;;;5228018;22;19957;-88
2023/06/24 05:12:21;;;;;;;;;;;;;;;;;;5204916;22;19934;-87
2023/06/24 05:14:41;;;;;;;;;;;;;;;;;;5204865;22;19917;-87
2023/06/24 05:17:02;;;;;;;;;;;;;;;;;;5227854;22;20157;-87
2023/06/24 05:19:22;;;;;;;;;;;;;;;;;;5204939;22;19953;-88
2023/06/24 05:21:42;;;;;;;;;;;;;;;;;;5204785;22;19918;-87
2023/06/24 05:24:03;;;;;;;;;;;;;;;;;;5227833;22;19961;-87
2023/06/24 05:26:23;;;;;;;;;;;;;;;;;;5227930;22;20105;-87
2023/06/24 05:28:43;;;;;;;;;;;;;;;;;;5227713;22;20209;-88
2023/06/24 05:31:03;;;;;;;;;;;;;;;;;;5227873;22;20002;-88
2023/06/24 05:33:24;;;;;;;;;;;;;;;;;;5204934;22;19957;-87
2023/06/24 05:35:44;;;;;;;;;;;;;;;;;;5227777;22;19918;-87
2023/06/24 05:38:04;;;;;;;;;;;;;;;;;;5227806;22;19917;-87
2023/06/24 05:40:24;;;;;;;;;;;;;;;;;;5227779;22;19921;-88
2023/06/24 05:42:45;;;;;;;;;;;;;;;;;;5204833;22;19990;-87
2023/06/24 05:45:06;;;;;;;;;;;;;;;;;;5204727;22;19918;-87
2023/06/24 05:47:26;;;;;;;;;;;;;;;;;;5227716;22;19946;-87
2023/06/24 05:49:46;;;;;;;;;;;;;;;;;;5204785;22;19918;-87
2023/06/24 05:52:06;;;;;;;;;;;;;;;;;;5227621;22;19953;-87
2023/06/24 05:54:26;;;;;;;;;;;;;;;;;;5204743;22;20217;-87
2023/06/24 05:56:46;;;;;;;;;;;;;;;;;;5204840;22;19918;-87
2023/06/24 05:59:06;;;;;;;;;;;;;;;;;;5227653;22;19933;-87
2023/06/24 06:01:27;;;;;;;;;;;;;;;;;;5228194;22;20216;-87
2023/06/24 06:03:48;;;;;;;;;;;;;;;;;;5227462;22;19934;-87
2023/06/24 06:06:09;;;;;;;;;;;;;;;;;;5227634;22;19925;-87
2023/06/24 06:08:29;;;;;;;;;;;;;;;;;;5204630;22;20238;-87
2023/06/24 06:10:50;;;;;;;;;;;;;;;;;;5227788;22;20225;-87
2023/06/24 06:13:12;;;;;;;;;;;;;;;;;;5227670;22;19917;-87
2023/06/24 06:15:32;;;;;;;;;;;;;;;;;;5227529;22;19917;-87
2023/06/24 06:17:52;;;;;;;;;;;;;;;;;;5227629;22;19933;-86
2023/06/24 06:20:13;;;;;;;;;;;;;;;;;;5204879;22;19918;-87
2023/06/24 06:22:37;;;;;;;;;;;;;;;;;;5204582;22;19998;-86
2023/06/24 06:24:57;;;;;;;;;;;;;;;;;;5204646;22;19918;-87
2023/06/24 06:27:17;;;;;;;;;;;;;;;;;;5213144;22;20166;-85
2023/06/24 06:29:37;;;;;;;;;;;;;;;;;;5204584;22;20299;-85
2023/06/24 06:31:58;;;;;;;;;;;;;;;;;;5236105;22;19918;-85
2023/06/24 06:34:18;;;;;;;;;;;;;;;;;;5227541;22;19918;-87
2023/06/24 06:36:38;;;;;;;;;;;;;;;;;;5227493;22;19918;-87
2023/06/24 06:38:58;;;;;;;;;;;;;;;;;;5204508;22;19977;-87
2023/06/24 06:41:24;;;;;;;;;;;;;;;;;;5236114;22;20136;-87
2023/06/24 06:43:44;;;;;;;;;;;;;;;;;;5227467;22;19921;-87
2023/06/24 06:46:04;;;;;;;;;;;;;;;;;;5227360;22;19918;-87
2023/06/24 06:48:25;;;;;;;;;;;;;;;;;;5212853;22;19941;-87
2023/06/24 06:50:45;;;;;;;;;;;;;;;;;;5204631;22;19917;-87
2023/06/24 06:53:05;;;;;;;;;;;;;;;;;;5204449;22;19942;-87
2023/06/24 06:55:26;;;;;;;;;;;;;;;;;;5227342;22;20255;-87
2023/06/24 06:57:46;;;;;;;;;;;;;;;;;;5213039;22;20005;-87
2023/06/24 07:00:07;;;;;;;;;;;;;;;;;;5227350;22;19917;-87
2023/06/24 07:02:27;;;;;;;;;;;;;;;;;;5227389;22;19917;-87
2023/06/24 07:04:47;;;;;;;;;;;;;;;;;;5204429;22;19918;-86
2023/06/24 07:07:07;;;;;;;;;;;;;;;;;;5227202;22;19918;-86
2023/06/24 07:09:28;;;;;;;;;;;;;;;;;;5235857;22;19917;-86
2023/06/24 07:11:48;;;;;;;;;;;;;;;;;;5227397;22;19917;-86
2023/06/24 07:14:08;;;;;;;;;;;;;;;;;;5204141;22;20153;-87
2023/06/24 07:16:28;;;;;;;;;;;;;;;;;;5227681;22;19917;-87
2023/06/24 07:18:48;;;;;;;;;;;;;;;;;;5205213;22;19936;-87
2023/06/24 07:21:08;;;;;;;;;;;;;;;;;;5205317;22;19917;-87
2023/06/24 07:23:29;;;;;;;;;;;;;;;;;;5228128;22;20144;-87
2023/06/24 07:25:49;;;;;;;;;;;;;;;;;;5205286;22;20241;-86
2023/06/24 07:28:10;;;;;;;;;;;;;;;;;;5205151;22;19918;-87
2023/06/24 07:30:30;;;;;;;;;;;;;;;;;;5228192;22;20035;-88
2023/06/24 07:32:51;;;;;;;;;;;;;;;;;;5228233;22;19918;-87
2023/06/24 07:35:11;;;;;;;;;;;;;;;;;;5228348;22;19933;-87
2023/06/24 07:37:31;;;;;;;;;;;;;;;;;;5228231;22;20137;-87
2023/06/24 07:39:51;;;;;;;;;;;;;;;;;;5180077;22;19967;-87
2023/06/24 07:42:11;;;;;;;;;;;;;;;;;;5205287;22;19918;-87
2023/06/24 07:44:32;;;;;;;;;;;;;;;;;;5228164;22;19962;-87
2023/06/24 07:46:52;;;;;;;;;;;;;;;;;;5228155;22;19921;-87
2023/06/24 07:49:12;;;;;;;;;;;;;;;;;;5228206;22;19941;-87
2023/06/24 07:51:35;;;;;;;;;;;;;;;;;;5205269;22;20163;-87
2023/06/24 07:53:54;;;;;;;;;;;;;;;;;;5228004;22;20159;-87
2023/06/24 07:56:15;;;;;;;;;;;;;;;;;;5205208;22;19954;-87
2023/06/24 07:58:37;;;;;;;;;;;;;;;;;;5228134;22;19918;-87
2023/06/24 08:00:57;;;;;;;;;;;;;;;;;;5205097;22;20008;-87
2023/06/24 08:03:18;;;;;;;;;;;;;;;;;;5228462;22;19918;-75
2023/06/24 08:05:39;;;;;;;;;;;;;;;;;;5205215;22;19970;-75
2023/06/24 08:07:59;;;;;;;;;;;;;;;;;;5204984;22;19918;-76
2023/06/24 08:10:19;;;;;;;;;;;;;;;;;;5227994;22;20106;-75
2023/06/24 08:12:39;;;;;;;;;;;;;;;;;;5228120;22;19917;-75
2023/06/24 08:15:00;;;;;;;;;;;;;;;;;;5228038;22;19933;-76
2023/06/24 08:17:20;;;;;;;;;;;;;;;;;;5205006;22;20140;-75
2023/06/24 08:19:40;;;;;;;;;;;;;;;;;;5228478;22;19917;-76
2023/06/24 08:22:00;;;;;;;;;;;;;;;;;;5228087;22;20217;-76
2023/06/24 08:24:21;;;;;;;;;;;;;;;;;;5204963;22;19937;-75
2023/06/24 08:26:41;;;;;;;;;;;;;;;;;;5227978;22;19918;-75
2023/06/24 08:29:01;;;;;;;;;;;;;;;;;;5228018;22;19925;-76
2023/06/24 08:31:24;;;;;;;;;;;;;;;;;;5205520;22;20110;-75
2023/06/24 08:33:48;;;;;;;;;;;;;;;;;;5228093;22;19918;-75
2023/06/24 08:36:08;;;;;;;;;;;;;;;;;;5228095;22;19970;-75
2023/06/24 08:38:28;;;;;;;;;;;;;;;;;;5204987;22;19975;-75
2023/06/24 08:40:49;;;;;;;;;;;;;;;;;;5204887;22;19918;-75
2023/06/24 08:43:09;;;;;;;;;;;;;;;;;;5227979;22;19933;-75
2023/06/24 08:45:30;;;;;;;;;;;;;;;;;;5228010;22;19925;-75
2023/06/24 08:47:50;;;;;;;;;;;;;;;;;;5204792;22;20240;-75
2023/06/24 08:50:10;;;;;;;;;;;;;;;;;;5227844;22;20034;-76
2023/06/24 08:52:31;;;;;;;;;;;;;;;;;;5227946;22;19917;-75
2023/06/24 08:54:51;;;;;;;;;;;;;;;;;;5227883;22;19947;-75
2023/06/24 08:57:14;;;;;;;;;;;;;;;;;;5227932;22;19922;-75
2023/06/24 08:59:34;;;;;;;;;;;;;;;;;;5227947;22;19918;-75
2023/06/24 09:01:55;;;;;;;;;;;;;;;;;;5213539;22;19937;-75
2023/06/24 09:04:15;;;;;;;;;;;;;;;;;;5236419;22;19917;-76
2023/06/24 09:06:35;;;;;;;;;;;;;;;;;;5227903;22;19917;-75
2023/06/24 09:08:56;;;;;;;;;;;;;;;;;;5204786;22;20192;-75
2023/06/24 09:11:16;;;;;;;;;;;;;;;;;;5227761;22;20140;-75
2023/06/24 09:13:36;;;;;;;;;;;;;;;;;;5236356;22;20252;-75
2023/06/24 09:15:56;;;;;;;;;;;;;;;;;;5204962;22;19918;-75
2023/06/24 09:18:17;;;;;;;;;;;;;;;;;;5227649;22;19918;-74
2023/06/24 09:20:39;;;;;;;;;;;;;;;;;;5204858;22;19941;-75
2023/06/24 09:22:59;;;;;;;;;;;;;;;;;;5227740;22;19956;-75
2023/06/24 09:25:19;;;;;;;;;;;;;;;;;;5227774;22;20005;-75
2023/06/24 09:27:40;;;;;;;;;;;;;;;;;;5236308;22;20151;-75
2023/06/24 09:30:00;;;;;;;;;;;;;;;;;;5227868;22;19953;-75
2023/06/24 09:32:20;;;;;;;;;;;;;;;;;;5204784;22;19933;-75
2023/06/24 09:34:41;;;;;;;;;;;;;;;;;;5227712;22;19969;-75
2023/06/24 09:37:01;;;;;;;;;;;;;;;;;;5204848;22;19917;-75
2023/06/24 09:39:22;;;;;;;;;;;;;;;;;;5204299;22;19953;-76
2023/06/24 09:41:50;;;;;;;;;;;;;;;;;;5227633;22;19918;-75
2023/06/24 09:44:10;;;;;;;;;;;;;;;;;;5204763;22;19926;-75
2023/06/24 09:46:31;;;;;;;;;;;;;;;;;;5213366;22;20030;-75
2023/06/24 09:48:52;;;;;;;;;;;;;;;;;;5204633;22;19918;-75
2023/06/24 09:51:12;;;;;;;;;;;;;;;;;;5204697;22;19918;-76
2023/06/24 09:53:35;;;;;;;;;;;;;;;;;;5227777;22;19982;-84
2023/06/24 09:55:56;;;;;;;;;;;;;;;;;;5204704;22;19918;-83
2023/06/24 09:58:16;;;;;;;;;;;;;;;;;;5204549;22;19926;-84
2023/06/24 10:00:36;;;;;;;;;;;;;;;;;;5204816;22;19972;-84
2023/06/24 10:02:57;;;;;;;;;;;;;;;;;;5204730;22;20249;-80
2023/06/24 10:05:20;;;;;;;;;;;;;;;;;;5227426;22;19926;-80
2023/06/24 10:07:40;;;;;;;;;;;;;;;;;;5204532;22;19957;-80
2023/06/24 10:10:00;;;;;;;;;;;;;;;;;;5227721;22;19918;-80
2023/06/24 10:12:21;;;;;;;;;;;;;;;;;;5227575;22;20020;-80
2023/06/24 10:14:41;;;;;;;;;;;;;;;;;;5227566;22;20138;-80
2023/06/24 10:17:01;;;;;;;;;;;;;;;;;;5227553;22;20296;-80
2023/06/24 10:19:22;;;;;;;;;;;;;;;;;;5204508;22;19918;-80
2023/06/24 10:21:43;;;;;;;;;;;;;;;;;;5227444;22;19933;-79
2023/06/24 10:24:03;;;;;;;;;;;;;;;;;;5204506;22;19918;-79
2023/06/24 10:26:24;;;;;;;;;;;;;;;;;;5227495;22;20220;-79
2023/06/24 10:28:44;;;;;;;;;;;;;;;;;;5204360;22;19922;-82
2023/06/24 10:31:04;;;;;;;;;;;;;;;;;;5204663;22;19918;-82
2023/06/24 10:33:25;;;;;;;;;;;;;;;;;;5227476;22;19933;-81
2023/06/24 10:35:45;;;;;;;;;;;;;;;;;;5212964;22;20239;-83
2023/06/24 10:38:05;;;;;;;;;;;;;;;;;;5227543;22;19953;-82
2023/06/24 10:40:26;;;;;;;;;;;;;;;;;;5227468;22;19926;-84
2023/06/24 10:42:48;;;;;;;;;;;;;;;;;;5227367;22;19933;-84
2023/06/24 10:45:08;;;;;;;;;;;;;;;;;;5227343;22;19918;-84
2023/06/24 10:47:29;;;;;;;;;;;;;;;;;;5227471;22;19959;-83
2023/06/24 10:49:49;;;;;;;;;;;;;;;;;;5226974;22;19946;-83
2023/06/24 10:52:09;;;;;;;;;;;;;;;;;;5227076;22;20114;-82
2023/06/24 10:54:31;;;;;;;;;;;;;;;;;;5227456;22;19917;-82
2023/06/24 10:56:51;;;;;;;;;;;;;;;;;;5204451;22;19918;-83
2023/06/24 10:59:11;;;;;;;;;;;;;;;;;;5227247;22;19917;-82
2023/06/24 11:01:32;;;;;;;;;;;;;;;;;;5227351;22;19918;-82
2023/06/24 11:03:52;;;;;;;;;;;;;;;;;;5227386;22;19942;-82
2023/06/24 11:06:12;;;;;;;;;;;;;;;;;;5227265;22;19918;-82
2023/06/24 11:08:33;;;;;;;;;;;;;;;;;;5204253;22;19934;-82
2023/06/24 11:10:53;;;;;;;;;;;;;;;;;;5227326;22;19945;-83
2023/06/24 11:13:13;;;;;;;;;;;;;;;;;;5226921;22;19918;-83
2023/06/24 11:15:34;;;;;;;;;;;;;;;;;;5227231;22;20144;-83
2023/06/24 11:17:56;;;;;;;;;;;;;;;;;;5204737;22;19942;-83
2023/06/24 11:20:16;;;;;;;;;;;;;;;;;;5204377;22;19958;-82
2023/06/24 11:22:36;;;;;;;;;;;;;;;;;;5227205;22;19918;-82
2023/06/24 11:24:56;;;;;;;;;;;;;;;;;;5204314;22;19974;-82
2023/06/24 11:27:16;;;;;;;;;;;;;;;;;;5204101;22;19981;-82
2023/06/24 11:29:36;;;;;;;;;;;;;;;;;;5204110;22;19933;-82
2023/06/24 11:31:57;;;;;;;;;;;;;;;;;;5227122;22;19918;-82
2023/06/24 11:34:17;;;;;;;;;;;;;;;;;;5227041;22;19941;-82
2023/06/24 11:36:37;;;;;;;;;;;;;;;;;;5204039;22;19942;-82
2023/06/24 11:38:57;;;;;;;;;;;;;;;;;;5204131;22;20165;-82
2023/06/24 11:41:17;;;;;;;;;;;;;;;;;;5227054;22;20251;-82
2023/06/24 11:43:38;;;;;;;;;;;;;;;;;;5203979;22;20173;-82
2023/06/24 11:45:58;;;;;;;;;;;;;;;;;;5226991;22;19958;-82
2023/06/24 11:48:18;;;;;;;;;;;;;;;;;;5226952;22;19963;-82
2023/06/24 11:50:38;;;;;;;;;;;;;;;;;;5226954;22;19960;-82
2023/06/24 11:52:59;;;;;;;;;;;;;;;;;;5226915;22;20247;-82
2023/06/24 11:55:19;;;;;;;;;;;;;;;;;;5204182;22;19918;-82
2023/06/24 11:57:40;;;;;;;;;;;;;;;;;;5203929;22;19917;-82
2023/06/24 12:00:00;;;;;;;;;;;;;;;;;;5226874;22;19917;-82
2023/06/24 12:02:20;;;;;;;;;;;;;;;;;;5227527;22;19958;-82
2023/06/24 12:04:41;;;;;;;;;;;;;;;;;;5228175;22;19918;-82
2023/06/24 12:07:01;;;;;;;;;;;;;;;;;;5205054;22;20158;-82
2023/06/24 12:09:22;;;;;;;;;;;;;;;;;;5205297;22;19961;-82
2023/06/24 12:11:42;;;;;;;;;;;;;;;;;;5228177;22;20105;-82
2023/06/24 12:14:02;;;;;;;;;;;;;;;;;;5228048;22;19976;-82
2023/06/24 12:16:24;;;;;;;;;;;;;;;;;;5213680;22;19918;-82
2023/06/24 12:18:44;;;;;;;;;;;;;;;;;;5228244;22;19921;-82
2023/06/24 12:21:05;;;;;;;;;;;;;;;;;;5204142;22;19968;-82
2023/06/24 12:23:25;;;;;;;;;;;;;;;;;;5227982;22;19926;-82
2023/06/24 12:25:46;;;;;;;;;;;;;;;;;;5236724;22;19952;-82
2023/06/24 12:28:06;;;;;;;;;;;;;;;;;;5227933;22;19963;-82
2023/06/24 12:30:26;;;;;;;;;;;;;;;;;;5228002;22;19918;-82
2023/06/24 12:32:47;;;;;;;;;;;;;;;;;;5228111;22;19945;-82
2023/06/24 12:35:09;;;;;;;;;;;;;;;;;;5228078;22;19918;-82
2023/06/24 12:37:29;;;;;;;;;;;;;;;;;;5227977;22;19918;-82
2023/06/24 12:39:51;;;;;;;;;;;;;;;;;;5227876;22;19917;-81
2023/06/24 12:42:11;;;;;;;;;;;;;;;;;;5228085;22;19952;-82
2023/06/24 12:44:31;;;;;;;;;;;;;;;;;;5227951;22;20247;-82
2023/06/24 12:46:51;;;;;;;;;;;;;;;;;;5204967;22;19946;-82
2023/06/24 12:49:11;;;;;;;;;;;;;;;;;;5204973;22;20110;-82
2023/06/24 12:51:32;;;;;;;;;;;;;;;;;;5228390;22;19957;-82
2023/06/24 12:53:52;;;;;;;;;;;;;;;;;;5227953;22;20001;-81
2023/06/24 12:56:12;;;;;;;;;;;;;;;;;;5227998;22;20283;-82
2023/06/24 12:58:33;;;;;;;;;;;;;;;;;;5227946;22;19918;-82
2023/06/24 13:00:53;;;;;;;;;;;;;;;;;;5236456;22;20102;-82
2023/06/24 13:03:13;;;;;;;;;;;;;;;;;;5204973;22;19965;-82
2023/06/24 13:05:34;;;;;;;;;;;;;;;;;;5227906;22;19918;-82
2023/06/24 13:07:54;;;;;;;;;;;;;;;;;;5236338;22;19918;-81
2023/06/24 13:10:14;;;;;;;;;;;;;;;;;;5227906;22;19918;-81
2023/06/24 13:12:35;;;;;;;;;;;;;;;;;;5213470;22;19976;-81
2023/06/24 13:14:55;;;;;;;;;;;;;;;;;;5227366;22;20224;-81
2023/06/24 13:17:15;;;;;;;;;;;;;;;;;;5227942;22;19942;-82
2023/06/24 13:19:35;;;;;;;;;;;;;;;;;;5228035;22;19917;-82
2023/06/24 13:21:56;;;;;;;;;;;;;;;;;;5227804;22;19946;-81
2023/06/24 13:24:16;;;;;;;;;;;;;;;;;;5227913;22;19917;-81
2023/06/24 13:26:36;;;;;;;;;;;;;;;;;;5236575;22;19917;-81
2023/06/24 13:28:57;;;;;;;;;;;;;;;;;;5204738;22;20103;-81
2023/06/24 13:31:18;;;;;;;;;;;;;;;;;;5227706;22;19987;-81
2023/06/24 13:33:38;;;;;;;;;;;;;;;;;;5227880;22;19945;-81
2023/06/24 13:35:58;;;;;;;;;;;;;;;;;;5227737;22;19934;-81
2023/06/24 13:38:20;;;;;;;;;;;;;;;;;;5227674;22;19917;-82
2023/06/24 13:40:40;;;;;;;;;;;;;;;;;;5227690;22;19948;-81
2023/06/24 13:43:01;;;;;;;;;;;;;;;;;;5227810;22;19934;-81
2023/06/24 13:45:21;;;;;;;;;;;;;;;;;;5204762;22;19918;-81
2023/06/24 13:47:41;;;;;;;;;;;;;;;;;;5227803;22;19922;-81
2023/06/24 13:50:02;;;;;;;;;;;;;;;;;;5204856;22;20018;-81
2023/06/24 13:52:22;;;;;;;;;;;;;;;;;;5227741;22;19945;-81
2023/06/24 13:54:43;;;;;;;;;;;;;;;;;;5227739;22;19959;-81
2023/06/24 13:57:03;;;;;;;;;;;;;;;;;;5204800;22;19965;-81
2023/06/24 13:59:23;;;;;;;;;;;;;;;;;;5227686;22;19917;-81
2023/06/24 14:01:44;;;;;;;;;;;;;;;;;;5227593;22;19918;-81
2023/06/24 14:04:04;;;;;;;;;;;;;;;;;;5227730;22;19945;-81
2023/06/24 14:06:24;;;;;;;;;;;;;;;;;;5227673;22;19994;-81
2023/06/24 14:08:44;;;;;;;;;;;;;;;;;;5204595;22;19918;-81
2023/06/24 14:11:04;;;;;;;;;;;;;;;;;;5227663;22;19940;-81
2023/06/24 14:13:25;;;;;;;;;;;;;;;;;;5227690;22;20109;-81
2023/06/24 14:15:45;;;;;;;;;;;;;;;;;;5204613;22;19934;-81
2023/06/24 14:18:04;;;;;;;;;;;;;;;;;;5204652;22;20105;-81
2023/06/24 14:20:24;;;;;;;;;;;;;;;;;;5227792;22;20113;-81
2023/06/24 14:22:45;;;;;;;;;;;;;;;;;;5227585;22;19949;-81
2023/06/24 14:25:05;;;;;;;;;;;;;;;;;;5204439;22;19934;-81
2023/06/24 14:27:25;;;;;;;;;;;;;;;;;;5227663;22;19953;-81
2023/06/24 14:29:45;;;;;;;;;;;;;;;;;;5183145;22;19954;-81
2023/06/24 14:32:06;;;;;;;;;;;;;;;;;;5227592;22;19917;-81
2023/06/24 14:34:29;;;;;;;;;;;;;;;;;;5204670;22;19917;-81
2023/06/24 14:36:49;;;;;;;;;;;;;;;;;;5204591;22;19918;-81
2023/06/24 14:39:09;;;;;;;;;;;;;;;;;;5204512;22;19971;-81
2023/06/24 14:41:29;;;;;;;;;;;;;;;;;;5204520;22;19956;-81
2023/06/24 14:43:50;;;;;;;;;;;;;;;;;;5227532;22;19918;-81
2023/06/24 14:46:10;;;;;;;;;;;;;;;;;;5227409;22;19917;-81
2023/06/24 14:48:30;;;;;;;;;;;;;;;;;;5204369;22;19952;-82
2023/06/24 14:50:50;;;;;;;;;;;;;;;;;;5227461;22;19970;-82
2023/06/24 14:53:11;;;;;;;;;;;;;;;;;;5227421;22;19917;-81
2023/06/24 14:55:31;;;;;;;;;;;;;;;;;;5227532;22;19917;-81
2023/06/24 14:57:51;;;;;;;;;;;;;;;;;;5204486;22;19984;-85
2023/06/24 15:00:11;;;;;;;;;;;;;;;;;;5204463;22;20178;-85
2023/06/24 15:02:32;;;;;;;;;;;;;;;;;;5204412;22;19918;-85
2023/06/24 15:04:52;;;;;;;;;;;;;;;;;;5227491;22;19938;-85
2023/06/24 15:07:12;;;;;;;;;;;;;;;;;;5227325;22;19945;-85
2023/06/24 15:09:33;;;;;;;;;;;;;;;;;;5212771;22;19918;-85
2023/06/24 15:11:54;;;;;;;;;;;;;;;;;;5227391;22;19918;-85
2023/06/24 15:14:14;;;;;;;;;;;;;;;;;;5227433;22;19918;-85
2023/06/24 15:16:34;;;;;;;;;;;;;;;;;;5202472;22;19989;-85
2023/06/24 15:18:55;;;;;;;;;;;;;;;;;;5212887;22;20160;-85
2023/06/24 15:21:15;;;;;;;;;;;;;;;;;;5227342;22;19917;-85
2023/06/24 15:23:51;;;;;;;;;;;;;;;;;;5227234;22;19917;-85
2023/06/24 15:26:11;;;;;;;;;;;;;;;;;;5204087;22;19933;-85
2023/06/24 15:28:31;;;;;;;;;;;;;;;;;;5204038;22;19957;-85
2023/06/24 15:30:52;;;;;;;;;;;;;;;;;;5204215;22;20245;-85
2023/06/24 15:33:12;;;;;;;;;;;;;;;;;;5204209;22;19933;-85
2023/06/24 15:35:33;;;;;;;;;;;;;;;;;;5227082;22;19957;-85
2023/06/24 15:37:53;;;;;;;;;;;;;;;;;;5205124;22;20258;-85
2023/06/24 15:40:13;;;;;;;;;;;;;;;;;;5205224;22;20110;-85
2023/06/24 15:42:34;;;;;;;;;;;;;;;;;;5228221;22;19942;-85
2023/06/24 15:44:54;;;;;;;;;;;;;;;;;;5205328;22;19918;-85
2023/06/24 15:47:15;;;;;;;;;;;;;;;;;;5205372;22;19969;-85
2023/06/24 15:49:35;;;;;;;;;;;;;;;;;;5228144;22;19942;-85
2023/06/24 15:51:55;;;;;;;;;;;;;;;;;;5228230;22;19918;-85
2023/06/24 15:54:15;;;;;;;;;;;;;;;;;;5205178;22;20246;-85
2023/06/24 15:56:36;;;;;;;;;;;;;;;;;;5205093;22;19952;-85
2023/06/24 15:58:56;;;;;;;;;;;;;;;;;;5228200;22;20110;-85